sensor_id;sensor_type;location;lat;lon;timestamp;pressure;altitude;pressure_sealevel;temperature;humidity
61039;BME280;46919;45.816;3.104;2022-10-31T00:00:46;98151.97;;;14.10;80.41
61039;BME280;46919;45.816;3.104;2022-10-31T00:03:11;98158.06;;;14.17;80.34
61039;BME280;46919;45.816;3.104;2022-10-31T00:05:41;98154.78;;;14.15;80.33
61039;BME280;46919;45.816;3.104;2022-10-31T00:08:06;98137.78;;;14.08;80.97
61039;BME280;46919;45.816;3.104;2022-10-31T00:10:31;98139.13;;;13.93;81.34
61039;BME280;46919;45.816;3.104;2022-10-31T00:12:57;98141.41;;;13.85;81.84
61039;BME280;46919;45.816;3.104;2022-10-31T00:15:22;98141.16;;;13.86;82.01
61039;BME280;46919;45.816;3.104;2022-10-31T00:17:47;98136.94;;;13.79;82.11
61039;BME280;46919;45.816;3.104;2022-10-31T00:20:13;98137.63;;;13.74;82.48
61039;BME280;46919;45.816;3.104;2022-10-31T00:22:38;98129.72;;;13.72;82.72
61039;BME280;46919;45.816;3.104;2022-10-31T00:25:04;98135.03;;;13.79;82.81
61039;BME280;46919;45.816;3.104;2022-10-31T00:27:29;98131.72;;;13.77;82.94
61039;BME280;46919;45.816;3.104;2022-10-31T00:29:54;98127.81;;;13.73;83.02
61039;BME280;46919;45.816;3.104;2022-10-31T00:32:20;98128.91;;;13.72;83.02
61039;BME280;46919;45.816;3.104;2022-10-31T00:34:45;98128.53;;;13.68;83.07
61039;BME280;46919;45.816;3.104;2022-10-31T00:37:11;98117.81;;;13.62;83.68
61039;BME280;46919;45.816;3.104;2022-10-31T00:39:36;98120.28;;;13.63;83.67
61039;BME280;46919;45.816;3.104;2022-10-31T00:42:01;98106.19;;;13.78;83.16
61039;BME280;46919;45.816;3.104;2022-10-31T00:44:27;98111.63;;;13.78;82.95
61039;BME280;46919;45.816;3.104;2022-10-31T00:46:52;98104.81;;;13.64;83.49
61039;BME280;46919;45.816;3.104;2022-10-31T00:49:17;98109.91;;;13.60;84.02
61039;BME280;46919;45.816;3.104;2022-10-31T00:51:43;98114.72;;;13.70;83.58
61039;BME280;46919;45.816;3.104;2022-10-31T00:54:08;98107.44;;;13.58;83.86
61039;BME280;46919;45.816;3.104;2022-10-31T00:56:33;98108.38;;;13.52;84.51
61039;BME280;46919;45.816;3.104;2022-10-31T00:58:59;98107.81;;;13.50;84.89
61039;BME280;46919;45.816;3.104;2022-10-31T01:01:24;98106.13;;;13.49;84.85
61039;BME280;46919;45.816;3.104;2022-10-31T01:03:50;98111.34;;;13.51;84.70
61039;BME280;46919;45.816;3.104;2022-10-31T01:06:16;98106.13;;;13.49;84.77
61039;BME280;46919;45.816;3.104;2022-10-31T01:08:42;98107.81;;;13.50;84.88
61039;BME280;46919;45.816;3.104;2022-10-31T01:11:12;98111.56;;;13.49;84.72
61039;BME280;46919;45.816;3.104;2022-10-31T01:13:38;98109.94;;;13.48;85.06
61039;BME280;46919;45.816;3.104;2022-10-31T01:16:06;98104.59;;;13.53;84.78
61039;BME280;46919;45.816;3.104;2022-10-31T01:18:32;98097.53;;;13.52;84.46
61039;BME280;46919;45.816;3.104;2022-10-31T01:21:05;98091.50;;;13.50;85.28
61039;BME280;46919;45.816;3.104;2022-10-31T01:23:31;98094.91;;;13.57;88.06
61039;BME280;46919;45.816;3.104;2022-10-31T01:26:24;98092.78;;;13.59;84.86
61039;BME280;46919;45.816;3.104;2022-10-31T01:31:20;98093.84;;;13.58;84.69
61039;BME280;46919;45.816;3.104;2022-10-31T01:33:46;98085.47;;;13.72;84.31
61039;BME280;46919;45.816;3.104;2022-10-31T01:36:20;98087.81;;;13.68;84.02
61039;BME280;46919;45.816;3.104;2022-10-31T01:38:47;98081.47;;;13.63;84.35
61039;BME280;46919;45.816;3.104;2022-10-31T01:41:17;98078.38;;;13.59;84.77
61039;BME280;46919;45.816;3.104;2022-10-31T01:43:54;98074.25;;;13.56;84.72
61039;BME280;46919;45.816;3.104;2022-10-31T01:46:33;98067.75;;;13.57;85.30
61039;BME280;46919;45.816;3.104;2022-10-31T01:49:03;98077.56;;;13.58;85.16
61039;BME280;46919;45.816;3.104;2022-10-31T01:51:32;98080.06;;;13.48;85.49
61039;BME280;46919;45.816;3.104;2022-10-31T01:54:04;98069.31;;;13.41;85.92
61039;BME280;46919;45.816;3.104;2022-10-31T01:56:34;98075.13;;;13.45;86.18
61039;BME280;46919;45.816;3.104;2022-10-31T01:59:08;98067.03;;;13.62;85.27
61039;BME280;46919;45.816;3.104;2022-10-31T02:01:35;98071.97;;;13.77;84.70
61039;BME280;46919;45.816;3.104;2022-10-31T02:04:01;98065.81;;;13.82;84.54
61039;BME280;46919;45.816;3.104;2022-10-31T02:06:38;98068.31;;;13.71;84.73
61039;BME280;46919;45.816;3.104;2022-10-31T02:09:05;98061.75;;;13.55;85.40
61039;BME280;46919;45.816;3.104;2022-10-31T02:11:32;98054.69;;;13.43;85.97
61039;BME280;46919;45.816;3.104;2022-10-31T02:14:01;98040.88;;;13.44;86.28
61039;BME280;46919;45.816;3.104;2022-10-31T02:16:27;98031.91;;;13.44;86.55
61039;BME280;46919;45.816;3.104;2022-10-31T02:18:53;98031.56;;;13.40;86.64
61039;BME280;46919;45.816;3.104;2022-10-31T02:21:19;98034.97;;;13.35;86.66
61039;BME280;46919;45.816;3.104;2022-10-31T02:32:36;98041.50;;;13.34;86.45
61039;BME280;46919;45.816;3.104;2022-10-31T02:37:51;98030.75;;;13.28;86.80
61039;BME280;46919;45.816;3.104;2022-10-31T02:45:50;98008.91;;;13.22;87.37
61039;BME280;46919;45.816;3.104;2022-10-31T02:48:23;98010.78;;;13.22;87.76
61039;BME280;46919;45.816;3.104;2022-10-31T02:51:00;98008.66;;;13.24;87.50
61039;BME280;46919;45.816;3.104;2022-10-31T02:53:32;98004.06;;;13.25;87.54
61039;BME280;46919;45.816;3.104;2022-10-31T02:56:17;97998.88;;;13.35;87.53
61039;BME280;46919;45.816;3.104;2022-10-31T02:58:47;98008.44;;;13.37;86.83
61039;BME280;46919;45.816;3.104;2022-10-31T03:18:29;97905.13;;;13.44;88.03
61039;BME280;46919;45.816;3.104;2022-10-31T03:20:58;97924.72;;;13.46;87.60
61039;BME280;46919;45.816;3.104;2022-10-31T03:23:28;97934.91;;;13.39;88.06
61039;BME280;46919;45.816;3.104;2022-10-31T03:25:55;97930.50;;;13.50;87.55
61039;BME280;46919;45.816;3.104;2022-10-31T03:28:29;97929.09;;;13.47;87.78
61039;BME280;46919;45.816;3.104;2022-10-31T03:30:56;97927.81;;;13.38;88.93
61039;BME280;46919;45.816;3.104;2022-10-31T03:33:27;97957.66;;;13.50;88.73
61039;BME280;46919;45.816;3.104;2022-10-31T03:35:55;97943.22;;;13.49;88.09
61039;BME280;46919;45.816;3.104;2022-10-31T03:38:23;97958.56;;;13.55;87.58
61039;BME280;46919;45.816;3.104;2022-10-31T03:40:50;97940.53;;;13.49;87.60
61039;BME280;46919;45.816;3.104;2022-10-31T03:43:19;97941.47;;;13.43;88.01
61039;BME280;46919;45.816;3.104;2022-10-31T03:45:47;97928.16;;;13.41;88.05
61039;BME280;46919;45.816;3.104;2022-10-31T03:48:14;97934.81;;;13.34;88.60
61039;BME280;46919;45.816;3.104;2022-10-31T03:53:43;97945.88;;;13.32;88.50
61039;BME280;46919;45.816;3.104;2022-10-31T03:56:21;97935.38;;;13.36;87.72
61039;BME280;46919;45.816;3.104;2022-10-31T03:59:06;97925.75;;;13.16;88.47
61039;BME280;46919;45.816;3.104;2022-10-31T04:01:38;97914.69;;;13.06;89.42
61039;BME280;46919;45.816;3.104;2022-10-31T04:04:06;97913.25;;;13.15;88.94
61039;BME280;46919;45.816;3.104;2022-10-31T04:06:33;97914.19;;;13.09;89.14
61039;BME280;46919;45.816;3.104;2022-10-31T04:09:02;97921.28;;;13.10;89.28
61039;BME280;46919;45.816;3.104;2022-10-31T04:11:31;97916.69;;;12.99;89.63
61039;BME280;46919;45.816;3.104;2022-10-31T04:14:00;97919.44;;;12.87;89.64
61039;BME280;46919;45.816;3.104;2022-10-31T04:16:26;97908.97;;;12.79;90.11
61039;BME280;46919;45.816;3.104;2022-10-31T04:18:52;97910.25;;;12.76;90.27
61039;BME280;46919;45.816;3.104;2022-10-31T04:21:18;97903.91;;;12.71;90.11
61039;BME280;46919;45.816;3.104;2022-10-31T04:23:43;97901.44;;;12.69;90.12
61039;BME280;46919;45.816;3.104;2022-10-31T04:26:11;97897.41;;;12.83;89.43
61039;BME280;46919;45.816;3.104;2022-10-31T04:28:37;97908.81;;;12.97;88.78
61039;BME280;46919;45.816;3.104;2022-10-31T04:31:02;97910.31;;;13.05;87.98
61039;BME280;46919;45.816;3.104;2022-10-31T04:33:28;97918.34;;;13.12;87.66
61039;BME280;46919;45.816;3.104;2022-10-31T04:35:53;97912.53;;;13.08;87.61
61039;BME280;46919;45.816;3.104;2022-10-31T04:38:18;97912.59;;;12.84;88.73
61039;BME280;46919;45.816;3.104;2022-10-31T04:40:45;97901.22;;;12.71;89.60
61039;BME280;46919;45.816;3.104;2022-10-31T04:43:10;97905.91;;;12.75;89.10
61039;BME280;46919;45.816;3.104;2022-10-31T04:45:36;97907.78;;;12.86;88.65
61039;BME280;46919;45.816;3.104;2022-10-31T04:48:02;97913.19;;;12.86;88.80
61039;BME280;46919;45.816;3.104;2022-10-31T04:50:27;97900.97;;;12.72;89.19
61039;BME280;46919;45.816;3.104;2022-10-31T04:52:53;97904.63;;;12.66;89.76
61039;BME280;46919;45.816;3.104;2022-10-31T04:55:18;97904.63;;;12.66;89.42
61039;BME280;46919;45.816;3.104;2022-10-31T04:57:45;97903.56;;;12.55;89.86
61039;BME280;46919;45.816;3.104;2022-10-31T05:00:13;97892.25;;;12.46;90.20
61039;BME280;46919;45.816;3.104;2022-10-31T05:02:50;97893.47;;;12.39;90.15
61039;BME280;46919;45.816;3.104;2022-10-31T05:05:17;97892.97;;;12.42;89.99
61039;BME280;46919;45.816;3.104;2022-10-31T05:07:44;97898.03;;;12.38;90.51
61039;BME280;46919;45.816;3.104;2022-10-31T05:10:12;97901.34;;;12.40;89.61
61039;BME280;46919;45.816;3.104;2022-10-31T05:12:40;97887.78;;;12.28;90.67
61039;BME280;46919;45.816;3.104;2022-10-31T05:15:10;97883.44;;;12.39;90.25
61039;BME280;46919;45.816;3.104;2022-10-31T05:17:35;97871.53;;;12.40;90.24
61039;BME280;46919;45.816;3.104;2022-10-31T05:20:00;97870.34;;;12.36;90.43
61039;BME280;46919;45.816;3.104;2022-10-31T05:22:26;97874.81;;;12.30;90.14
61039;BME280;46919;45.816;3.104;2022-10-31T05:24:51;97869.63;;;12.29;90.49
61039;BME280;46919;45.816;3.104;2022-10-31T05:27:17;97861.03;;;12.44;90.15
61039;BME280;46919;45.816;3.104;2022-10-31T05:29:42;97866.94;;;12.41;90.31
61039;BME280;46919;45.816;3.104;2022-10-31T05:32:07;97870.47;;;12.41;90.68
61039;BME280;46919;45.816;3.104;2022-10-31T05:34:33;97867.50;;;12.55;90.01
61039;BME280;46919;45.816;3.104;2022-10-31T05:36:58;97871.03;;;12.55;89.76
61039;BME280;46919;45.816;3.104;2022-10-31T05:39:23;97877.66;;;12.59;89.91
61039;BME280;46919;45.816;3.104;2022-10-31T05:41:49;97869.63;;;12.64;89.69
61039;BME280;46919;45.816;3.104;2022-10-31T05:44:14;97863.59;;;12.74;89.44
61039;BME280;46919;45.816;3.104;2022-10-31T05:46:39;97854.97;;;12.65;89.83
61039;BME280;46919;45.816;3.104;2022-10-31T05:49:05;97850.88;;;12.51;90.43
61039;BME280;46919;45.816;3.104;2022-10-31T05:51:30;97803.78;;;12.40;91.43
61039;BME280;46919;45.816;3.104;2022-10-31T05:53:55;97826.03;;;12.42;92.10
61039;BME280;46919;45.816;3.104;2022-10-31T05:56:21;97834.19;;;12.42;91.72
61039;BME280;46919;45.816;3.104;2022-10-31T05:58:46;97831.47;;;12.42;92.23
61039;BME280;46919;45.816;3.104;2022-10-31T06:01:11;97839.97;;;12.34;93.27
61039;BME280;46919;45.816;3.104;2022-10-31T06:03:37;97836.19;;;12.23;94.83
61039;BME280;46919;45.816;3.104;2022-10-31T06:06:02;97840.19;;;12.21;95.78
61039;BME280;46919;45.816;3.104;2022-10-31T06:08:28;97835.63;;;12.21;95.83
61039;BME280;46919;45.816;3.104;2022-10-31T06:10:53;97842.44;;;12.12;96.80
61039;BME280;46919;45.816;3.104;2022-10-31T06:13:19;97842.31;;;12.07;96.92
61039;BME280;46919;45.816;3.104;2022-10-31T06:15:44;97851.16;;;12.02;97.66
61039;BME280;46919;45.816;3.104;2022-10-31T06:18:09;97862.69;;;12.09;97.75
61039;BME280;46919;45.816;3.104;2022-10-31T06:20:35;97867.66;;;12.12;97.94
61039;BME280;46919;45.816;3.104;2022-10-31T06:23:01;97859.16;;;11.97;98.84
61039;BME280;46919;45.816;3.104;2022-10-31T06:25:27;97866.91;;;12.05;98.79
61039;BME280;46919;45.816;3.104;2022-10-31T06:27:53;97871.88;;;12.08;99.36
61039;BME280;46919;45.816;3.104;2022-10-31T06:30:18;97856.22;;;11.99;99.41
61039;BME280;46919;45.816;3.104;2022-10-31T06:32:44;97853.47;;;11.87;99.31
61039;BME280;46919;45.816;3.104;2022-10-31T06:35:09;97856.75;;;11.89;100.00
61039;BME280;46919;45.816;3.104;2022-10-31T06:37:35;97852.09;;;11.96;100.00
61039;BME280;46919;45.816;3.104;2022-10-31T06:40:00;97855.16;;;12.11;99.00
61039;BME280;46919;45.816;3.104;2022-10-31T06:42:26;97860.00;;;12.21;97.95
61039;BME280;46919;45.816;3.104;2022-10-31T06:44:51;97872.97;;;12.31;97.22
61039;BME280;46919;45.816;3.104;2022-10-31T06:47:16;97888.28;;;12.37;97.05
61039;BME280;46919;45.816;3.104;2022-10-31T06:49:42;97892.84;;;12.37;96.70
61039;BME280;46919;45.816;3.104;2022-10-31T06:52:07;97898.50;;;12.35;96.52
61039;BME280;46919;45.816;3.104;2022-10-31T06:54:32;97893.31;;;12.33;96.54
61039;BME280;46919;45.816;3.104;2022-10-31T06:56:58;97890.84;;;12.32;96.94
61039;BME280;46919;45.816;3.104;2022-10-31T06:59:23;97890.63;;;12.33;96.92
61039;BME280;46919;45.816;3.104;2022-10-31T07:01:49;97890.25;;;12.30;96.79
61039;BME280;46919;45.816;3.104;2022-10-31T07:04:15;97880.38;;;12.24;96.85
61039;BME280;46919;45.816;3.104;2022-10-31T07:06:40;97890.16;;;12.25;96.90
61039;BME280;46919;45.816;3.104;2022-10-31T07:09:06;97887.09;;;12.33;96.69
61039;BME280;46919;45.816;3.104;2022-10-31T07:11:31;97889.56;;;12.35;96.46
61039;BME280;46919;45.816;3.104;2022-10-31T07:13:56;97884.00;;;12.41;95.50
61039;BME280;46919;45.816;3.104;2022-10-31T07:16:22;97889.56;;;12.35;95.59
61039;BME280;46919;45.816;3.104;2022-10-31T07:18:47;97886.50;;;12.31;95.99
61039;BME280;46919;45.816;3.104;2022-10-31T07:21:12;97888.13;;;12.32;95.93
61039;BME280;46919;45.816;3.104;2022-10-31T07:23:38;97888.50;;;12.36;95.80
61039;BME280;46919;45.816;3.104;2022-10-31T07:26:03;97884.47;;;12.38;96.10
61039;BME280;46919;45.816;3.104;2022-10-31T07:28:29;97885.78;;;12.47;95.55
61039;BME280;46919;45.816;3.104;2022-10-31T07:30:56;97885.19;;;12.57;95.32
61039;BME280;46919;45.816;3.104;2022-10-31T07:33:22;97889.88;;;12.62;94.99
61039;BME280;46919;45.816;3.104;2022-10-31T07:35:47;97894.25;;;12.63;95.91
61039;BME280;46919;45.816;3.104;2022-10-31T07:38:14;97899.88;;;12.73;95.21
61039;BME280;46919;45.816;3.104;2022-10-31T07:40:41;97887.44;;;13.01;92.59
61039;BME280;46919;45.816;3.104;2022-10-31T07:43:07;97883.75;;;13.48;89.26
61039;BME280;46919;45.816;3.104;2022-10-31T07:45:33;97885.19;;;13.84;86.50
61039;BME280;46919;45.816;3.104;2022-10-31T07:47:58;97875.09;;;14.13;84.85
61039;BME280;46919;45.816;3.104;2022-10-31T07:50:29;97886.25;;;14.34;83.13
61039;BME280;46919;45.816;3.104;2022-10-31T07:53:02;97873.47;;;14.52;81.91
61039;BME280;46919;45.816;3.104;2022-10-31T07:55:29;97872.31;;;14.64;81.17
61039;BME280;46919;45.816;3.104;2022-10-31T07:57:59;97874.59;;;14.73;80.77
61039;BME280;46919;45.816;3.104;2022-10-31T08:00:25;97876.84;;;14.81;79.67
61039;BME280;46919;45.816;3.104;2022-10-31T08:03:18;97871.63;;;14.96;78.53
61039;BME280;46919;45.816;3.104;2022-10-31T08:05:44;97869.25;;;15.05;78.14
61039;BME280;46919;45.816;3.104;2022-10-31T08:08:13;97877.59;;;15.20;76.74
61039;BME280;46919;45.816;3.104;2022-10-31T08:10:39;97872.06;;;15.37;76.21
61039;BME280;46919;45.816;3.104;2022-10-31T08:13:14;97869.00;;;15.56;74.83
61039;BME280;46919;45.816;3.104;2022-10-31T08:15:40;97871.25;;;15.64;74.45
61039;BME280;46919;45.816;3.104;2022-10-31T08:18:14;97865.28;;;15.67;73.96
61039;BME280;46919;45.816;3.104;2022-10-31T08:20:40;97868.81;;;15.68;74.62
61039;BME280;46919;45.816;3.104;2022-10-31T08:23:05;97862.59;;;15.72;74.21
61039;BME280;46919;45.816;3.104;2022-10-31T08:25:33;97862.91;;;15.76;74.07
61039;BME280;46919;45.816;3.104;2022-10-31T08:27:58;97864.09;;;15.85;73.31
61039;BME280;46919;45.816;3.104;2022-10-31T08:30:29;97858.69;;;15.90;73.16
61039;BME280;46919;45.816;3.104;2022-10-31T08:33:11;97856.28;;;15.94;72.91
61039;BME280;46919;45.816;3.104;2022-10-31T08:35:37;97855.47;;;15.99;73.05
61039;BME280;46919;45.816;3.104;2022-10-31T08:38:03;97848.81;;;16.17;71.81
61039;BME280;46919;45.816;3.104;2022-10-31T08:40:30;97844.84;;;16.35;71.27
61039;BME280;46919;45.816;3.104;2022-10-31T08:43:00;97853.38;;;16.48;71.34
61039;BME280;46919;45.816;3.104;2022-10-31T08:45:27;97853.94;;;16.56;70.91
61039;BME280;46919;45.816;3.104;2022-10-31T08:47:56;97846.88;;;16.60;70.63
61039;BME280;46919;45.816;3.104;2022-10-31T08:50:22;97847.44;;;16.62;71.06
61039;BME280;46919;45.816;3.104;2022-10-31T08:52:47;97845.81;;;16.66;70.57
61039;BME280;46919;45.816;3.104;2022-10-31T08:55:13;97844.50;;;16.74;70.14
61039;BME280;46919;45.816;3.104;2022-10-31T08:57:38;97845.94;;;16.87;69.71
61039;BME280;46919;45.816;3.104;2022-10-31T09:00:04;97843.25;;;16.97;69.19
61039;BME280;46919;45.816;3.104;2022-10-31T09:02:30;97829.66;;;17.12;68.08
61039;BME280;46919;45.816;3.104;2022-10-31T09:04:55;97837.34;;;17.26;67.62
61039;BME280;46919;45.816;3.104;2022-10-31T09:07:21;97837.63;;;17.34;67.55
61039;BME280;46919;45.816;3.104;2022-10-31T09:09:46;97842.28;;;17.44;67.25
61039;BME280;46919;45.816;3.104;2022-10-31T09:12:11;97829.72;;;17.59;66.38
61039;BME280;46919;45.816;3.104;2022-10-31T09:14:37;97845.63;;;17.72;65.13
61039;BME280;46919;45.816;3.104;2022-10-31T09:17:02;97830.03;;;17.78;65.16
61039;BME280;46919;45.816;3.104;2022-10-31T09:19:27;97832.78;;;17.83;65.20
61039;BME280;46919;45.816;3.104;2022-10-31T09:21:54;97839.06;;;17.93;64.72
61039;BME280;46919;45.816;3.104;2022-10-31T09:24:19;97826.22;;;17.99;64.56
61039;BME280;46919;45.816;3.104;2022-10-31T09:26:45;97825.09;;;18.16;63.24
61039;BME280;46919;45.816;3.104;2022-10-31T09:29:10;97813.06;;;18.22;63.19
61039;BME280;46919;45.816;3.104;2022-10-31T09:31:36;97813.63;;;18.29;63.29
61039;BME280;46919;45.816;3.104;2022-10-31T09:34:01;97816.59;;;18.38;62.90
61039;BME280;46919;45.816;3.104;2022-10-31T09:36:26;97819.03;;;18.44;62.49
61039;BME280;46919;45.816;3.104;2022-10-31T09:38:52;97811.59;;;18.55;61.81
61039;BME280;46919;45.816;3.104;2022-10-31T09:46:40;97813.50;;;18.70;61.70
61039;BME280;46919;45.816;3.104;2022-10-31T09:51:55;97807.41;;;18.94;61.45
61039;BME280;46919;45.816;3.104;2022-10-31T09:54:32;97796.13;;;19.00;60.83
61039;BME280;46919;45.816;3.104;2022-10-31T09:56:59;97793.31;;;19.16;60.49
61039;BME280;46919;45.816;3.104;2022-10-31T09:59:35;97780.63;;;19.30;60.24
61039;BME280;46919;45.816;3.104;2022-10-31T10:02:23;97777.84;;;19.35;60.20
61039;BME280;46919;45.816;3.104;2022-10-31T10:05:05;97769.09;;;19.33;60.08
61039;BME280;46919;45.816;3.104;2022-10-31T10:13:19;97766.19;;;19.54;58.77
61039;BME280;46919;45.816;3.104;2022-10-31T10:16:03;97765.59;;;19.57;58.78
61039;BME280;46919;45.816;3.104;2022-10-31T10:18:42;97772.16;;;19.61;58.63
61039;BME280;46919;45.816;3.104;2022-10-31T10:26:22;97767.75;;;19.65;58.42
61039;BME280;46919;45.816;3.104;2022-10-31T10:29:31;97754.19;;;19.79;56.69
61039;BME280;46919;45.816;3.104;2022-10-31T10:32:00;97756.22;;;19.98;56.65
61039;BME280;46919;45.816;3.104;2022-10-31T10:34:43;97751.97;;;20.11;56.01
61039;BME280;46919;45.816;3.104;2022-10-31T10:37:24;97754.34;;;20.22;56.27
61039;BME280;46919;45.816;3.104;2022-10-31T10:39:55;97755.16;;;20.23;55.79
61039;BME280;46919;45.816;3.104;2022-10-31T10:42:22;97748.56;;;20.24;55.90
61039;BME280;46919;45.816;3.104;2022-10-31T10:45:19;97744.03;;;20.33;54.98
61039;BME280;46919;45.816;3.104;2022-10-31T10:48:23;97748.91;;;20.41;54.44
61039;BME280;46919;45.816;3.104;2022-10-31T10:50:52;97735.63;;;20.49;54.44
61039;BME280;46919;45.816;3.104;2022-10-31T10:56:22;97733.78;;;20.68;53.57
61039;BME280;46919;45.816;3.104;2022-10-31T10:58:52;97728.97;;;20.79;53.66
61039;BME280;46919;45.816;3.104;2022-10-31T11:01:22;97728.97;;;20.79;53.25
61039;BME280;46919;45.816;3.104;2022-10-31T11:03:47;97726.97;;;20.85;52.94
61039;BME280;46919;45.816;3.104;2022-10-31T11:06:21;97720.44;;;20.99;52.73
61039;BME280;46919;45.816;3.104;2022-10-31T11:08:47;97710.72;;;21.07;51.90
61039;BME280;46919;45.816;3.104;2022-10-31T11:13:43;97717.81;;;21.27;51.18
61039;BME280;46919;45.816;3.104;2022-10-31T11:16:12;97709.88;;;21.26;51.41
61039;BME280;46919;45.816;3.104;2022-10-31T11:18:44;97721.09;;;21.29;51.43
61039;BME280;46919;45.816;3.104;2022-10-31T11:21:29;97705.19;;;21.26;51.61
61039;BME280;46919;45.816;3.104;2022-10-31T11:26:36;97706.91;;;21.41;51.06
61039;BME280;46919;45.816;3.104;2022-10-31T11:29:04;97709.56;;;21.46;51.64
61039;BME280;46919;45.816;3.104;2022-10-31T11:31:31;97710.75;;;21.40;51.14
61039;BME280;46919;45.816;3.104;2022-10-31T11:34:03;97692.69;;;21.53;51.04
61039;BME280;46919;45.816;3.104;2022-10-31T11:36:35;97683.44;;;21.63;50.73
61039;BME280;46919;45.816;3.104;2022-10-31T11:39:03;97683.75;;;21.61;50.41
61039;BME280;46919;45.816;3.104;2022-10-31T11:41:35;97677.84;;;21.68;50.09
61039;BME280;46919;45.816;3.104;2022-10-31T11:44:19;97673.88;;;21.74;50.52
61039;BME280;46919;45.816;3.104;2022-10-31T11:46:55;97659.34;;;21.87;49.35
61039;BME280;46919;45.816;3.104;2022-10-31T11:51:53;97647.41;;;21.78;50.35
61039;BME280;46919;45.816;3.104;2022-10-31T11:54:25;97645.66;;;21.82;49.64
61039;BME280;46919;45.816;3.104;2022-10-31T11:56:52;97643.34;;;21.89;49.77
61039;BME280;46919;45.816;3.104;2022-10-31T11:59:29;97645.19;;;22.08;49.26
61039;BME280;46919;45.816;3.104;2022-10-31T12:01:56;97628.56;;;22.13;48.69
61039;BME280;46919;45.816;3.104;2022-10-31T12:04:29;97635.59;;;22.19;48.48
61039;BME280;46919;45.816;3.104;2022-10-31T12:06:56;97623.88;;;22.28;48.23
61039;BME280;46919;45.816;3.104;2022-10-31T12:09:28;97618.59;;;22.17;48.66
61039;BME280;46919;45.816;3.104;2022-10-31T12:17:42;97619.81;;;22.11;48.02
61039;BME280;46919;45.816;3.104;2022-10-31T12:20:21;97616.44;;;22.14;47.72
61039;BME280;46919;45.816;3.104;2022-10-31T12:25:47;97603.91;;;21.94;48.35
61039;BME280;46919;45.816;3.104;2022-10-31T12:37:14;97590.69;;;22.60;47.06
61039;BME280;46919;45.816;3.104;2022-10-31T12:40:31;97574.56;;;22.90;47.62
61039;BME280;46919;45.816;3.104;2022-10-31T12:59:24;97537.72;;;23.40;45.58
61039;BME280;46919;45.816;3.104;2022-10-31T13:01:59;97535.81;;;23.49;45.29
61039;BME280;46919;45.816;3.104;2022-10-31T13:04:36;97527.09;;;23.56;44.60
61039;BME280;46919;45.816;3.104;2022-10-31T13:12:43;97510.44;;;23.79;44.31
61039;BME280;46919;45.816;3.104;2022-10-31T13:15:16;97510.97;;;23.90;44.33
61039;BME280;46919;45.816;3.104;2022-10-31T13:17:47;97510.03;;;24.03;44.21
61039;BME280;46919;45.816;3.104;2022-10-31T13:22:47;97498.34;;;24.15;43.83
61039;BME280;46919;45.816;3.104;2022-10-31T13:25:16;97494.78;;;24.23;43.70
61039;BME280;46919;45.816;3.104;2022-10-31T13:27:59;97492.16;;;23.92;44.11
61039;BME280;46919;45.816;3.104;2022-10-31T13:30:28;97482.47;;;23.63;44.33
61039;BME280;46919;45.816;3.104;2022-10-31T13:33:18;97484.91;;;23.56;44.77
61039;BME280;46919;45.816;3.104;2022-10-31T13:36:10;97478.81;;;23.36;45.05
61039;BME280;46919;45.816;3.104;2022-10-31T13:44:37;97479.09;;;22.94;45.85
61039;BME280;46919;45.816;3.104;2022-10-31T13:47:04;97473.66;;;22.80;45.93
61039;BME280;46919;45.816;3.104;2022-10-31T13:49:45;97466.69;;;22.74;46.36
61039;BME280;46919;45.816;3.104;2022-10-31T13:54:38;97469.22;;;22.71;46.52
61039;BME280;46919;45.816;3.104;2022-10-31T13:59:49;97460.47;;;22.69;46.41
61039;BME280;46919;45.816;3.104;2022-10-31T14:02:17;97455.28;;;22.67;46.02
61039;BME280;46919;45.816;3.104;2022-10-31T14:04:50;97463.06;;;22.65;46.08
61039;BME280;46919;45.816;3.104;2022-10-31T14:07:22;97455.09;;;22.64;45.62
61039;BME280;46919;45.816;3.104;2022-10-31T14:14:58;97455.34;;;22.53;45.49
61039;BME280;46919;45.816;3.104;2022-10-31T14:17:28;97439.59;;;22.45;45.50
61039;BME280;46919;45.816;3.104;2022-10-31T14:20:03;97446.47;;;22.34;46.01
61039;BME280;46919;45.816;3.104;2022-10-31T14:22:46;97440.84;;;22.25;46.51
61039;BME280;46919;45.816;3.104;2022-10-31T14:27:55;97452.63;;;22.17;46.30
61039;BME280;46919;45.816;3.104;2022-10-31T14:30:24;97428.16;;;22.15;46.41
61039;BME280;46919;45.816;3.104;2022-10-31T14:33:01;97430.91;;;22.15;46.22
61039;BME280;46919;45.816;3.104;2022-10-31T14:35:37;97423.19;;;22.17;46.68
61039;BME280;46919;45.816;3.104;2022-10-31T14:41:16;97436.81;;;22.22;45.84
61039;BME280;46919;45.816;3.104;2022-10-31T14:46:41;97423.66;;;22.19;45.17
61039;BME280;46919;45.816;3.104;2022-10-31T14:51:57;97407.38;;;22.09;44.68
61039;BME280;46919;45.816;3.104;2022-10-31T14:54:32;97415.31;;;22.11;44.73
61039;BME280;46919;45.816;3.104;2022-10-31T14:57:04;97416.16;;;22.11;44.81
61039;BME280;46919;45.816;3.104;2022-10-31T14:59:33;97407.38;;;22.09;44.74
61039;BME280;46919;45.816;3.104;2022-10-31T15:02:22;97423.03;;;22.00;44.93
61039;BME280;46919;45.816;3.104;2022-10-31T15:04:51;97415.09;;;21.98;44.69
61039;BME280;46919;45.816;3.104;2022-10-31T15:07:21;97416.38;;;22.01;44.97
61039;BME280;46919;45.816;3.104;2022-10-31T15:10:24;97415.19;;;21.93;45.25
61039;BME280;46919;45.816;3.104;2022-10-31T15:12:50;97428.75;;;21.89;45.23
61039;BME280;46919;45.816;3.104;2022-10-31T15:15:24;97426.63;;;21.86;45.56
61039;BME280;46919;45.816;3.104;2022-10-31T15:17:56;97430.31;;;21.82;45.57
61039;BME280;46919;45.816;3.104;2022-10-31T15:20:25;97433.47;;;21.75;46.18
61039;BME280;46919;45.816;3.104;2022-10-31T15:22:52;97429.09;;;21.74;45.87
61039;BME280;46919;45.816;3.104;2022-10-31T15:25:22;97429.72;;;21.71;45.94
61039;BME280;46919;45.816;3.104;2022-10-31T15:27:49;97435.22;;;21.71;45.83
61039;BME280;46919;45.816;3.104;2022-10-31T15:30:23;97425.66;;;21.68;45.90